עמוד ראשי
METAR-TAF:

METAR-TAF

שדות תעופה :

טיחואנה, מקסיקו

קו רוחב: 32-33N, קו אורך: 116-58W, גובה: 152מטר

תצפית מזג אוויר נוכחית

הדו"ח נערך לפני 1 שעות ו 9דקות, בשעה 07:43 UTC
רוח 4קשר מכיוון צפון-מערב
טמפרטורת 17 צלסיוס
לחות 88%
לחץ 1010 hPa
ראות: 11.3קילומטר
שמיים נקיים

METAR: MMTJ 160743Z 31004KT 7SM SKC 17/15 A2982 RMK HZY

זמן: 01:52 (08:52 UTC)

תחזית

הדו"ח נערך לפני 3 שעות ו 59דקות, בשעה 04:53 UTC
תחזית בתוקף מ 16 ב 06 UTC עד 17 ב 06 UTC
רוח 5קשר מכיוון דרום/דרום-מערב
ראות: 9.7קילומטר
עננים פזורים בגובה 1500רגל
אובך
מ 16 ב 1000UTC
רוח 3קשר מכיוון דרום/דרום-מערב
ראות: 6.4קילומטר
עננים בינוניים בגובה 1000רגל
אובך
מ 16 ב 1200UTC
רוח 5קשר מכיוון דרום-מערב
ראות: 9.7קילומטר
עננים פזורים בגובה 1500רגל
אובך
יעשה מ
16 ב 16 UTC עד 16 ב 17 UTC
רוח 12קשר מכיוון מערב/דרום-מערב
שמיים נקיים
מ 17 ב 0300UTC
רוח 5קשר מכיוון דרום
ראות: 9.7קילומטר
עננים פזורים בגובה 2000רגל
אובך,

TAF: MMTJ 160453Z 1606/1706 20005KT 6SM HZ SCT015 TX25/1619Z TN15/1612Z FM161000 20003KT 4SM HZ BKN010 FM161200 22005KT 6SM HZ SCT015 BECMG 1616/1617 24012KT SKC FM170300 18005KT 6SM HZ SCT020

תצפיות ותחזיות מזג אוויר לגבי יותר מ- 4,000 שדות תעופה ברחבי העולם. דוחות METAR ו- TAF.

התחנות הזמינות מסומנות בנקודות צהובות ואדומות על גבי המפה.

העבר את העכבר לנקודה הצבעונית על מנת לראות את שם התחנה.

לאחר מכן, לחץ כדי לראות את תוכן ואת תחזיות מזג האוויר.

כדי לשנות את המפה: לחץ על הכפתורים הירוקים עם הפלוס השחור כדי להתקרב; על הכפתור הירוק עם המקף כדי להתרחק; או בחיצים הירוקים למפות סמוכות.


METAR-TAF: